sensor_id;sensor_type;location;lat;lon;timestamp;temperature;humidity
19060;DHT22;9663;48.996;8.334;2024-01-06T00:02:16;10.30;61.40
19060;DHT22;9663;48.996;8.334;2024-01-06T00:04:41;10.30;61.50
19060;DHT22;9663;48.996;8.334;2024-01-06T00:07:07;10.20;61.40
19060;DHT22;9663;48.996;8.334;2024-01-06T00:09:33;10.20;61.50
19060;DHT22;9663;48.996;8.334;2024-01-06T00:11:58;10.20;61.50
19060;DHT22;9663;48.996;8.334;2024-01-06T00:14:24;10.20;61.50
19060;DHT22;9663;48.996;8.334;2024-01-06T00:16:49;10.20;61.40
19060;DHT22;9663;48.996;8.334;2024-01-06T00:19:15;10.20;61.40
19060;DHT22;9663;48.996;8.334;2024-01-06T00:21:43;10.20;61.30
19060;DHT22;9663;48.996;8.334;2024-01-06T00:24:08;10.20;61.30
19060;DHT22;9663;48.996;8.334;2024-01-06T00:26:34;10.20;61.50
19060;DHT22;9663;48.996;8.334;2024-01-06T00:29:00;10.20;61.60
19060;DHT22;9663;48.996;8.334;2024-01-06T00:31:25;10.10;61.40
19060;DHT22;9663;48.996;8.334;2024-01-06T00:33:51;10.10;61.40
19060;DHT22;9663;48.996;8.334;2024-01-06T00:36:17;10.10;61.40
19060;DHT22;9663;48.996;8.334;2024-01-06T00:38:42;10.10;61.40
19060;DHT22;9663;48.996;8.334;2024-01-06T00:41:08;10.10;61.40
19060;DHT22;9663;48.996;8.334;2024-01-06T00:43:33;10.10;61.40
19060;DHT22;9663;48.996;8.334;2024-01-06T00:45:59;10.10;61.40
19060;DHT22;9663;48.996;8.334;2024-01-06T00:48:25;10.10;61.40
19060;DHT22;9663;48.996;8.334;2024-01-06T00:50:50;10.10;61.40
19060;DHT22;9663;48.996;8.334;2024-01-06T00:53:16;10.10;61.40
19060;DHT22;9663;48.996;8.334;2024-01-06T00:55:41;10.10;61.40
19060;DHT22;9663;48.996;8.334;2024-01-06T00:58:07;10.10;61.40
19060;DHT22;9663;48.996;8.334;2024-01-06T01:00:34;10.10;61.40
19060;DHT22;9663;48.996;8.334;2024-01-06T01:02:59;10.10;61.40
19060;DHT22;9663;48.996;8.334;2024-01-06T01:05:25;10.10;61.50
19060;DHT22;9663;48.996;8.334;2024-01-06T01:07:51;10.10;61.50
19060;DHT22;9663;48.996;8.334;2024-01-06T01:10:16;10.10;61.50
19060;DHT22;9663;48.996;8.334;2024-01-06T01:12:42;10.10;61.50
19060;DHT22;9663;48.996;8.334;2024-01-06T01:15:08;10.10;61.50
19060;DHT22;9663;48.996;8.334;2024-01-06T01:17:34;10.10;61.50
19060;DHT22;9663;48.996;8.334;2024-01-06T01:19:59;10.10;61.50
19060;DHT22;9663;48.996;8.334;2024-01-06T01:22:25;10.00;61.40
19060;DHT22;9663;48.996;8.334;2024-01-06T01:24:51;10.00;61.40
19060;DHT22;9663;48.996;8.334;2024-01-06T01:27:16;10.00;61.40
19060;DHT22;9663;48.996;8.334;2024-01-06T01:29:42;10.00;61.40
19060;DHT22;9663;48.996;8.334;2024-01-06T01:32:07;10.00;61.40
19060;DHT22;9663;48.996;8.334;2024-01-06T01:34:33;10.00;61.40
19060;DHT22;9663;48.996;8.334;2024-01-06T01:36:59;10.00;61.50
19060;DHT22;9663;48.996;8.334;2024-01-06T01:39:25;9.90;61.40
19060;DHT22;9663;48.996;8.334;2024-01-06T01:41:51;9.90;61.40
19060;DHT22;9663;48.996;8.334;2024-01-06T01:44:16;9.90;61.40
19060;DHT22;9663;48.996;8.334;2024-01-06T01:46:42;9.80;61.40
19060;DHT22;9663;48.996;8.334;2024-01-06T01:49:08;9.80;61.40
19060;DHT22;9663;48.996;8.334;2024-01-06T01:51:34;9.80;61.40
19060;DHT22;9663;48.996;8.334;2024-01-06T01:54:01;9.80;61.50
19060;DHT22;9663;48.996;8.334;2024-01-06T01:56:29;9.70;61.50
19060;DHT22;9663;48.996;8.334;2024-01-06T01:59:00;9.70;61.50
19060;DHT22;9663;48.996;8.334;2024-01-06T02:01:29;9.70;61.50
19060;DHT22;9663;48.996;8.334;2024-01-06T02:03:55;9.70;61.50
19060;DHT22;9663;48.996;8.334;2024-01-06T02:06:20;9.70;61.60
19060;DHT22;9663;48.996;8.334;2024-01-06T02:08:46;9.60;61.60
19060;DHT22;9663;48.996;8.334;2024-01-06T02:11:12;9.60;61.70
19060;DHT22;9663;48.996;8.334;2024-01-06T02:13:37;9.60;61.70
19060;DHT22;9663;48.996;8.334;2024-01-06T02:16:04;9.60;61.70
19060;DHT22;9663;48.996;8.334;2024-01-06T02:18:31;9.60;61.70
19060;DHT22;9663;48.996;8.334;2024-01-06T02:20:59;9.60;61.70
19060;DHT22;9663;48.996;8.334;2024-01-06T02:23:27;9.60;61.80
19060;DHT22;9663;48.996;8.334;2024-01-06T02:25:53;9.70;61.80
19060;DHT22;9663;48.996;8.334;2024-01-06T02:28:18;9.60;61.70
19060;DHT22;9663;48.996;8.334;2024-01-06T02:30:44;9.70;61.80
19060;DHT22;9663;48.996;8.334;2024-01-06T02:33:10;9.60;61.70
19060;DHT22;9663;48.996;8.334;2024-01-06T02:35:36;9.70;61.80
19060;DHT22;9663;48.996;8.334;2024-01-06T02:38:02;9.60;61.70
19060;DHT22;9663;48.996;8.334;2024-01-06T02:40:27;9.60;61.70
19060;DHT22;9663;48.996;8.334;2024-01-06T02:42:53;9.60;61.70
19060;DHT22;9663;48.996;8.334;2024-01-06T02:45:19;9.60;61.70
19060;DHT22;9663;48.996;8.334;2024-01-06T02:47:45;9.60;61.70
19060;DHT22;9663;48.996;8.334;2024-01-06T02:50:10;9.60;62.40
19060;DHT22;9663;48.996;8.334;2024-01-06T02:52:36;9.60;61.70
19060;DHT22;9663;48.996;8.334;2024-01-06T02:55:02;9.60;61.70
19060;DHT22;9663;48.996;8.334;2024-01-06T02:57:29;9.60;61.70
19060;DHT22;9663;48.996;8.334;2024-01-06T02:59:55;9.60;61.70
19060;DHT22;9663;48.996;8.334;2024-01-06T03:02:21;9.60;61.70
19060;DHT22;9663;48.996;8.334;2024-01-06T03:04:47;9.50;61.70
19060;DHT22;9663;48.996;8.334;2024-01-06T03:07:13;9.50;61.70
19060;DHT22;9663;48.996;8.334;2024-01-06T03:09:38;9.50;61.80
19060;DHT22;9663;48.996;8.334;2024-01-06T03:12:08;9.50;61.70
19060;DHT22;9663;48.996;8.334;2024-01-06T03:14:37;9.50;61.70
19060;DHT22;9663;48.996;8.334;2024-01-06T03:17:03;9.40;61.70
19060;DHT22;9663;48.996;8.334;2024-01-06T03:19:30;9.40;61.70
19060;DHT22;9663;48.996;8.334;2024-01-06T03:21:56;9.40;61.80
19060;DHT22;9663;48.996;8.334;2024-01-06T03:24:23;9.30;61.80
19060;DHT22;9663;48.996;8.334;2024-01-06T03:26:50;9.30;61.80
19060;DHT22;9663;48.996;8.334;2024-01-06T03:29:16;9.30;61.90
19060;DHT22;9663;48.996;8.334;2024-01-06T03:31:43;9.30;62.00
19060;DHT22;9663;48.996;8.334;2024-01-06T03:34:09;9.30;62.00
19060;DHT22;9663;48.996;8.334;2024-01-06T03:36:36;9.30;62.00
19060;DHT22;9663;48.996;8.334;2024-01-06T03:39:06;9.30;62.10
19060;DHT22;9663;48.996;8.334;2024-01-06T03:41:32;9.30;62.10
19060;DHT22;9663;48.996;8.334;2024-01-06T03:43:58;9.30;62.10
19060;DHT22;9663;48.996;8.334;2024-01-06T03:46:24;9.30;62.10
19060;DHT22;9663;48.996;8.334;2024-01-06T03:48:50;9.40;62.30
19060;DHT22;9663;48.996;8.334;2024-01-06T03:51:15;9.40;62.20
19060;DHT22;9663;48.996;8.334;2024-01-06T03:53:41;9.40;62.10
19060;DHT22;9663;48.996;8.334;2024-01-06T03:56:07;9.40;62.10
19060;DHT22;9663;48.996;8.334;2024-01-06T03:58:33;9.40;62.00
19060;DHT22;9663;48.996;8.334;2024-01-06T04:01:00;9.40;62.00
19060;DHT22;9663;48.996;8.334;2024-01-06T04:03:26;9.40;62.00
19060;DHT22;9663;48.996;8.334;2024-01-06T04:05:52;9.40;62.00
19060;DHT22;9663;48.996;8.334;2024-01-06T04:08:18;9.50;62.00
19060;DHT22;9663;48.996;8.334;2024-01-06T04:10:44;9.50;62.10
19060;DHT22;9663;48.996;8.334;2024-01-06T04:13:12;9.50;62.10
19060;DHT22;9663;48.996;8.334;2024-01-06T04:15:38;9.50;62.10
19060;DHT22;9663;48.996;8.334;2024-01-06T04:18:05;9.50;62.10
19060;DHT22;9663;48.996;8.334;2024-01-06T04:20:31;9.50;62.00
19060;DHT22;9663;48.996;8.334;2024-01-06T04:22:57;9.50;62.00
19060;DHT22;9663;48.996;8.334;2024-01-06T04:25:23;9.50;62.00
19060;DHT22;9663;48.996;8.334;2024-01-06T04:27:49;9.50;62.00
19060;DHT22;9663;48.996;8.334;2024-01-06T04:30:15;9.50;62.00
19060;DHT22;9663;48.996;8.334;2024-01-06T04:32:42;9.50;62.00
19060;DHT22;9663;48.996;8.334;2024-01-06T04:35:10;9.50;62.00
19060;DHT22;9663;48.996;8.334;2024-01-06T04:37:36;9.50;62.00
19060;DHT22;9663;48.996;8.334;2024-01-06T04:40:02;9.50;61.90
19060;DHT22;9663;48.996;8.334;2024-01-06T04:42:29;9.50;62.00
19060;DHT22;9663;48.996;8.334;2024-01-06T04:44:55;9.50;62.00
19060;DHT22;9663;48.996;8.334;2024-01-06T04:47:20;9.50;61.90
19060;DHT22;9663;48.996;8.334;2024-01-06T04:49:46;9.50;62.00
19060;DHT22;9663;48.996;8.334;2024-01-06T04:52:11;9.50;62.00
19060;DHT22;9663;48.996;8.334;2024-01-06T04:54:37;9.50;62.00
19060;DHT22;9663;48.996;8.334;2024-01-06T04:57:04;9.50;62.00
19060;DHT22;9663;48.996;8.334;2024-01-06T04:59:30;9.60;62.10
19060;DHT22;9663;48.996;8.334;2024-01-06T05:01:57;9.60;62.10
19060;DHT22;9663;48.996;8.334;2024-01-06T05:04:24;9.60;62.10
19060;DHT22;9663;48.996;8.334;2024-01-06T05:06:53;9.60;62.10
19060;DHT22;9663;48.996;8.334;2024-01-06T05:09:19;9.60;62.10
19060;DHT22;9663;48.996;8.334;2024-01-06T05:11:45;9.60;62.00
19060;DHT22;9663;48.996;8.334;2024-01-06T05:14:11;9.60;62.00
19060;DHT22;9663;48.996;8.334;2024-01-06T05:16:37;9.70;62.00
19060;DHT22;9663;48.996;8.334;2024-01-06T05:19:03;9.70;62.00
19060;DHT22;9663;48.996;8.334;2024-01-06T05:21:29;9.70;62.00
19060;DHT22;9663;48.996;8.334;2024-01-06T05:23:56;9.70;62.00
19060;DHT22;9663;48.996;8.334;2024-01-06T05:26:21;9.70;62.00
19060;DHT22;9663;48.996;8.334;2024-01-06T05:28:47;9.70;62.00
19060;DHT22;9663;48.996;8.334;2024-01-06T05:31:14;9.70;62.00
19060;DHT22;9663;48.996;8.334;2024-01-06T05:33:39;9.70;62.00
19060;DHT22;9663;48.996;8.334;2024-01-06T05:36:05;9.70;61.90
19060;DHT22;9663;48.996;8.334;2024-01-06T05:38:31;9.70;61.90
19060;DHT22;9663;48.996;8.334;2024-01-06T05:40:57;9.70;61.90
19060;DHT22;9663;48.996;8.334;2024-01-06T05:43:23;9.80;62.00
19060;DHT22;9663;48.996;8.334;2024-01-06T05:45:49;9.80;61.80
19060;DHT22;9663;48.996;8.334;2024-01-06T05:48:16;9.80;61.90
19060;DHT22;9663;48.996;8.334;2024-01-06T05:50:42;9.80;61.90
19060;DHT22;9663;48.996;8.334;2024-01-06T05:53:08;9.80;61.90
19060;DHT22;9663;48.996;8.334;2024-01-06T05:55:34;9.80;61.90
19060;DHT22;9663;48.996;8.334;2024-01-06T05:58:01;9.80;61.90
19060;DHT22;9663;48.996;8.334;2024-01-06T06:00:27;9.80;61.80
19060;DHT22;9663;48.996;8.334;2024-01-06T06:02:53;9.80;62.60
19060;DHT22;9663;48.996;8.334;2024-01-06T06:05:19;9.80;61.80
19060;DHT22;9663;48.996;8.334;2024-01-06T06:07:45;9.70;61.80
19060;DHT22;9663;48.996;8.334;2024-01-06T06:10:11;9.80;61.90
19060;DHT22;9663;48.996;8.334;2024-01-06T06:12:41;9.80;61.90
19060;DHT22;9663;48.996;8.334;2024-01-06T06:15:07;9.80;61.90
19060;DHT22;9663;48.996;8.334;2024-01-06T06:17:33;9.80;62.00
19060;DHT22;9663;48.996;8.334;2024-01-06T06:19:59;9.80;62.80
19060;DHT22;9663;48.996;8.334;2024-01-06T06:22:26;9.80;62.00
19060;DHT22;9663;48.996;8.334;2024-01-06T06:24:56;9.80;61.90
19060;DHT22;9663;48.996;8.334;2024-01-06T06:27:23;9.90;62.00
19060;DHT22;9663;48.996;8.334;2024-01-06T06:29:49;9.90;62.00
19060;DHT22;9663;48.996;8.334;2024-01-06T06:32:15;9.90;62.00
19060;DHT22;9663;48.996;8.334;2024-01-06T06:34:42;9.90;62.00
19060;DHT22;9663;48.996;8.334;2024-01-06T06:37:08;9.90;61.90
19060;DHT22;9663;48.996;8.334;2024-01-06T06:39:34;9.90;61.90
19060;DHT22;9663;48.996;8.334;2024-01-06T06:42:01;9.90;61.80
19060;DHT22;9663;48.996;8.334;2024-01-06T06:44:27;10.00;62.00
19060;DHT22;9663;48.996;8.334;2024-01-06T06:46:56;10.00;61.90
19060;DHT22;9663;48.996;8.334;2024-01-06T06:49:22;9.90;61.80
19060;DHT22;9663;48.996;8.334;2024-01-06T06:51:48;10.00;61.80
19060;DHT22;9663;48.996;8.334;2024-01-06T06:54:15;10.00;61.80
19060;DHT22;9663;48.996;8.334;2024-01-06T06:56:42;10.00;62.70
19060;DHT22;9663;48.996;8.334;2024-01-06T06:59:08;10.00;61.70
19060;DHT22;9663;48.996;8.334;2024-01-06T07:01:35;10.00;61.80
19060;DHT22;9663;48.996;8.334;2024-01-06T07:04:02;10.00;61.70
19060;DHT22;9663;48.996;8.334;2024-01-06T07:06:29;10.00;61.70
19060;DHT22;9663;48.996;8.334;2024-01-06T07:08:56;10.00;61.70
19060;DHT22;9663;48.996;8.334;2024-01-06T07:11:24;10.00;61.80
19060;DHT22;9663;48.996;8.334;2024-01-06T07:13:50;10.00;61.80
19060;DHT22;9663;48.996;8.334;2024-01-06T07:16:16;10.10;61.80
19060;DHT22;9663;48.996;8.334;2024-01-06T07:18:41;10.10;61.80
19060;DHT22;9663;48.996;8.334;2024-01-06T07:21:08;10.10;61.80
19060;DHT22;9663;48.996;8.334;2024-01-06T07:23:35;10.10;61.70
19060;DHT22;9663;48.996;8.334;2024-01-06T07:26:01;10.10;61.80
19060;DHT22;9663;48.996;8.334;2024-01-06T07:28:28;10.10;61.70
19060;DHT22;9663;48.996;8.334;2024-01-06T07:30:54;10.10;61.70
19060;DHT22;9663;48.996;8.334;2024-01-06T07:33:20;10.10;61.70
19060;DHT22;9663;48.996;8.334;2024-01-06T07:35:46;10.10;61.70
19060;DHT22;9663;48.996;8.334;2024-01-06T07:38:14;10.10;61.70
19060;DHT22;9663;48.996;8.334;2024-01-06T07:40:40;10.10;61.70
19060;DHT22;9663;48.996;8.334;2024-01-06T07:43:06;10.10;61.70
19060;DHT22;9663;48.996;8.334;2024-01-06T07:45:32;10.10;61.70
19060;DHT22;9663;48.996;8.334;2024-01-06T07:47:58;10.20;61.70
19060;DHT22;9663;48.996;8.334;2024-01-06T07:50:24;10.10;61.70
19060;DHT22;9663;48.996;8.334;2024-01-06T07:52:50;10.10;61.60
19060;DHT22;9663;48.996;8.334;2024-01-06T07:55:16;10.20;61.70
19060;DHT22;9663;48.996;8.334;2024-01-06T07:57:42;10.10;61.60
19060;DHT22;9663;48.996;8.334;2024-01-06T08:00:10;10.20;61.80
19060;DHT22;9663;48.996;8.334;2024-01-06T08:02:41;10.20;61.80
19060;DHT22;9663;48.996;8.334;2024-01-06T08:05:07;10.20;61.70
19060;DHT22;9663;48.996;8.334;2024-01-06T08:07:33;10.20;61.70
19060;DHT22;9663;48.996;8.334;2024-01-06T08:09:59;10.30;62.60
19060;DHT22;9663;48.996;8.334;2024-01-06T08:12:26;10.30;61.80
19060;DHT22;9663;48.996;8.334;2024-01-06T08:14:52;10.30;61.70
19060;DHT22;9663;48.996;8.334;2024-01-06T08:17:17;10.30;61.70
19060;DHT22;9663;48.996;8.334;2024-01-06T08:19:43;10.20;61.70
19060;DHT22;9663;48.996;8.334;2024-01-06T08:22:09;10.30;61.70
19060;DHT22;9663;48.996;8.334;2024-01-06T08:24:36;10.30;61.80
19060;DHT22;9663;48.996;8.334;2024-01-06T08:27:01;10.30;61.70
19060;DHT22;9663;48.996;8.334;2024-01-06T08:29:27;10.30;61.70
19060;DHT22;9663;48.996;8.334;2024-01-06T08:31:53;10.30;61.70
19060;DHT22;9663;48.996;8.334;2024-01-06T08:34:20;10.30;61.90
19060;DHT22;9663;48.996;8.334;2024-01-06T08:36:47;10.40;62.00
19060;DHT22;9663;48.996;8.334;2024-01-06T08:39:13;10.40;62.20
19060;DHT22;9663;48.996;8.334;2024-01-06T08:41:39;10.40;62.10
19060;DHT22;9663;48.996;8.334;2024-01-06T08:44:05;10.40;62.00
19060;DHT22;9663;48.996;8.334;2024-01-06T08:46:30;10.50;62.20
19060;DHT22;9663;48.996;8.334;2024-01-06T08:48:56;10.40;62.00
19060;DHT22;9663;48.996;8.334;2024-01-06T08:51:22;10.40;61.90
19060;DHT22;9663;48.996;8.334;2024-01-06T08:53:49;10.40;61.80
19060;DHT22;9663;48.996;8.334;2024-01-06T08:56:16;10.40;62.50
19060;DHT22;9663;48.996;8.334;2024-01-06T08:58:45;10.40;61.90
19060;DHT22;9663;48.996;8.334;2024-01-06T09:01:13;10.30;61.80
19060;DHT22;9663;48.996;8.334;2024-01-06T09:03:40;10.30;62.00
19060;DHT22;9663;48.996;8.334;2024-01-06T09:06:06;10.30;62.00
19060;DHT22;9663;48.996;8.334;2024-01-06T09:08:32;10.30;62.10
19060;DHT22;9663;48.996;8.334;2024-01-06T09:10:57;10.30;62.20
19060;DHT22;9663;48.996;8.334;2024-01-06T09:13:24;10.30;62.20
19060;DHT22;9663;48.996;8.334;2024-01-06T09:15:51;10.30;62.20
19060;DHT22;9663;48.996;8.334;2024-01-06T09:18:17;10.30;62.30
19060;DHT22;9663;48.996;8.334;2024-01-06T09:20:43;10.30;62.30
19060;DHT22;9663;48.996;8.334;2024-01-06T09:23:13;10.30;62.50
19060;DHT22;9663;48.996;8.334;2024-01-06T09:25:40;10.30;62.50
19060;DHT22;9663;48.996;8.334;2024-01-06T09:28:06;10.30;62.60
19060;DHT22;9663;48.996;8.334;2024-01-06T09:30:31;10.30;62.50
19060;DHT22;9663;48.996;8.334;2024-01-06T09:32:57;10.30;62.50
19060;DHT22;9663;48.996;8.334;2024-01-06T09:35:23;10.40;62.60
19060;DHT22;9663;48.996;8.334;2024-01-06T09:37:49;10.40;63.30
19060;DHT22;9663;48.996;8.334;2024-01-06T09:40:22;10.40;62.60
19060;DHT22;9663;48.996;8.334;2024-01-06T09:42:50;10.50;62.80
19060;DHT22;9663;48.996;8.334;2024-01-06T09:45:17;10.50;62.70
19060;DHT22;9663;48.996;8.334;2024-01-06T09:47:48;10.50;62.60
19060;DHT22;9663;48.996;8.334;2024-01-06T09:50:18;10.60;62.80
19060;DHT22;9663;48.996;8.334;2024-01-06T09:52:45;10.60;62.60
19060;DHT22;9663;48.996;8.334;2024-01-06T09:55:23;10.70;62.60
19060;DHT22;9663;48.996;8.334;2024-01-06T09:57:54;10.70;62.60
19060;DHT22;9663;48.996;8.334;2024-01-06T10:00:20;10.70;62.50
19060;DHT22;9663;48.996;8.334;2024-01-06T10:02:50;10.70;62.50
19060;DHT22;9663;48.996;8.334;2024-01-06T10:05:19;10.80;62.60
19060;DHT22;9663;48.996;8.334;2024-01-06T10:07:48;10.80;62.40
19060;DHT22;9663;48.996;8.334;2024-01-06T10:10:15;10.80;62.40
19060;DHT22;9663;48.996;8.334;2024-01-06T10:12:42;10.80;62.40
19060;DHT22;9663;48.996;8.334;2024-01-06T10:15:10;10.90;62.50
19060;DHT22;9663;48.996;8.334;2024-01-06T10:17:38;10.90;62.50
19060;DHT22;9663;48.996;8.334;2024-01-06T10:20:09;10.90;62.50
19060;DHT22;9663;48.996;8.334;2024-01-06T10:22:38;10.90;62.40
19060;DHT22;9663;48.996;8.334;2024-01-06T10:25:09;10.90;63.00
19060;DHT22;9663;48.996;8.334;2024-01-06T10:27:38;10.90;62.20
19060;DHT22;9663;48.996;8.334;2024-01-06T10:30:06;10.90;62.20
19060;DHT22;9663;48.996;8.334;2024-01-06T10:32:33;11.00;62.30
19060;DHT22;9663;48.996;8.334;2024-01-06T10:35:00;11.00;62.30
19060;DHT22;9663;48.996;8.334;2024-01-06T10:37:30;11.00;62.30
19060;DHT22;9663;48.996;8.334;2024-01-06T10:40:13;10.90;62.20
19060;DHT22;9663;48.996;8.334;2024-01-06T10:42:43;11.00;62.20
19060;DHT22;9663;48.996;8.334;2024-01-06T10:45:12;11.00;62.20
19060;DHT22;9663;48.996;8.334;2024-01-06T10:47:43;11.00;62.30
19060;DHT22;9663;48.996;8.334;2024-01-06T10:50:11;10.90;62.20
19060;DHT22;9663;48.996;8.334;2024-01-06T10:52:38;10.90;62.20
19060;DHT22;9663;48.996;8.334;2024-01-06T10:55:06;10.90;62.20
19060;DHT22;9663;48.996;8.334;2024-01-06T10:57:33;10.90;62.30
19060;DHT22;9663;48.996;8.334;2024-01-06T11:00:00;11.00;62.50
19060;DHT22;9663;48.996;8.334;2024-01-06T11:02:27;11.00;62.50
19060;DHT22;9663;48.996;8.334;2024-01-06T11:04:53;11.00;62.50
19060;DHT22;9663;48.996;8.334;2024-01-06T11:07:20;11.00;62.50
19060;DHT22;9663;48.996;8.334;2024-01-06T11:10:02;11.00;62.50
19060;DHT22;9663;48.996;8.334;2024-01-06T11:12:32;11.10;63.40
19060;DHT22;9663;48.996;8.334;2024-01-06T11:14:58;11.10;62.50
19060;DHT22;9663;48.996;8.334;2024-01-06T11:17:50;11.10;62.50
19060;DHT22;9663;48.996;8.334;2024-01-06T11:20:21;11.20;62.40
19060;DHT22;9663;48.996;8.334;2024-01-06T11:22:48;11.20;62.20
19060;DHT22;9663;48.996;8.334;2024-01-06T11:25:17;11.10;63.00
19060;DHT22;9663;48.996;8.334;2024-01-06T11:27:49;11.20;62.30
19060;DHT22;9663;48.996;8.334;2024-01-06T11:30:26;11.20;62.20
19060;DHT22;9663;48.996;8.334;2024-01-06T11:32:56;11.20;62.20
19060;DHT22;9663;48.996;8.334;2024-01-06T11:35:26;11.10;62.00
19060;DHT22;9663;48.996;8.334;2024-01-06T11:37:55;11.10;62.00
19060;DHT22;9663;48.996;8.334;2024-01-06T11:43:11;11.10;62.20
19060;DHT22;9663;48.996;8.334;2024-01-06T11:45:41;11.10;62.30
19060;DHT22;9663;48.996;8.334;2024-01-06T11:48:10;11.10;62.30
19060;DHT22;9663;48.996;8.334;2024-01-06T11:50:39;11.10;62.20
19060;DHT22;9663;48.996;8.334;2024-01-06T11:53:07;11.20;62.30
19060;DHT22;9663;48.996;8.334;2024-01-06T11:55:35;11.20;62.30
19060;DHT22;9663;48.996;8.334;2024-01-06T11:58:01;11.20;62.20
19060;DHT22;9663;48.996;8.334;2024-01-06T12:00:35;11.20;62.20
19060;DHT22;9663;48.996;8.334;2024-01-06T12:03:21;11.20;62.20
19060;DHT22;9663;48.996;8.334;2024-01-06T12:06:03;11.20;62.20
19060;DHT22;9663;48.996;8.334;2024-01-06T12:08:29;11.20;62.20
19060;DHT22;9663;48.996;8.334;2024-01-06T12:11:02;11.20;62.00
19060;DHT22;9663;48.996;8.334;2024-01-06T12:13:29;11.20;62.20
19060;DHT22;9663;48.996;8.334;2024-01-06T12:15:55;11.20;62.20
19060;DHT22;9663;48.996;8.334;2024-01-06T12:18:22;11.20;62.60
19060;DHT22;9663;48.996;8.334;2024-01-06T12:20:49;11.20;62.50
19060;DHT22;9663;48.996;8.334;2024-01-06T12:23:26;11.30;62.40
19060;DHT22;9663;48.996;8.334;2024-01-06T12:25:55;11.30;62.30
19060;DHT22;9663;48.996;8.334;2024-01-06T12:28:21;11.40;63.40
19060;DHT22;9663;48.996;8.334;2024-01-06T12:30:46;11.50;63.00
19060;DHT22;9663;48.996;8.334;2024-01-06T12:33:12;11.50;62.50
19060;DHT22;9663;48.996;8.334;2024-01-06T12:35:39;11.50;62.10
19060;DHT22;9663;48.996;8.334;2024-01-06T12:38:08;11.60;62.90
19060;DHT22;9663;48.996;8.334;2024-01-06T12:40:38;11.70;62.50
19060;DHT22;9663;48.996;8.334;2024-01-06T12:43:06;11.60;62.10
19060;DHT22;9663;48.996;8.334;2024-01-06T12:45:33;11.60;61.80
19060;DHT22;9663;48.996;8.334;2024-01-06T12:47:59;11.60;61.80
19060;DHT22;9663;48.996;8.334;2024-01-06T12:50:26;11.60;61.80
19060;DHT22;9663;48.996;8.334;2024-01-06T12:52:53;11.50;61.70
19060;DHT22;9663;48.996;8.334;2024-01-06T12:55:19;11.50;61.80
19060;DHT22;9663;48.996;8.334;2024-01-06T12:57:44;11.50;61.80
19060;DHT22;9663;48.996;8.334;2024-01-06T13:00:10;11.50;61.80
19060;DHT22;9663;48.996;8.334;2024-01-06T13:02:37;11.50;62.80
19060;DHT22;9663;48.996;8.334;2024-01-06T13:05:04;11.60;62.50
19060;DHT22;9663;48.996;8.334;2024-01-06T13:07:34;11.60;62.20
19060;DHT22;9663;48.996;8.334;2024-01-06T13:10:00;11.60;62.00
19060;DHT22;9663;48.996;8.334;2024-01-06T13:12:26;11.60;61.80
19060;DHT22;9663;48.996;8.334;2024-01-06T13:14:54;11.60;61.80
19060;DHT22;9663;48.996;8.334;2024-01-06T13:17:20;11.60;61.90
19060;DHT22;9663;48.996;8.334;2024-01-06T13:19:46;11.60;62.00
19060;DHT22;9663;48.996;8.334;2024-01-06T13:22:11;11.60;62.70
19060;DHT22;9663;48.996;8.334;2024-01-06T13:24:38;11.60;62.40
19060;DHT22;9663;48.996;8.334;2024-01-06T13:27:06;11.60;62.20
19060;DHT22;9663;48.996;8.334;2024-01-06T13:29:31;11.70;62.10
19060;DHT22;9663;48.996;8.334;2024-01-06T13:31:57;11.70;61.90
19060;DHT22;9663;48.996;8.334;2024-01-06T13:34:26;11.60;61.80
19060;DHT22;9663;48.996;8.334;2024-01-06T13:36:52;11.60;61.80
19060;DHT22;9663;48.996;8.334;2024-01-06T13:39:19;11.60;61.90
19060;DHT22;9663;48.996;8.334;2024-01-06T13:41:49;11.60;61.90
19060;DHT22;9663;48.996;8.334;2024-01-06T13:44:15;11.50;61.90
19060;DHT22;9663;48.996;8.334;2024-01-06T13:46:41;11.50;62.00
19060;DHT22;9663;48.996;8.334;2024-01-06T13:49:13;11.50;61.90
19060;DHT22;9663;48.996;8.334;2024-01-06T13:51:42;11.50;61.90
19060;DHT22;9663;48.996;8.334;2024-01-06T13:54:09;11.50;61.90
19060;DHT22;9663;48.996;8.334;2024-01-06T13:56:36;11.60;63.50
19060;DHT22;9663;48.996;8.334;2024-01-06T13:59:02;11.60;62.90
19060;DHT22;9663;48.996;8.334;2024-01-06T14:01:29;11.60;62.40
19060;DHT22;9663;48.996;8.334;2024-01-06T14:03:56;11.60;62.20
19060;DHT22;9663;48.996;8.334;2024-01-06T14:06:28;11.60;62.10
19060;DHT22;9663;48.996;8.334;2024-01-06T14:08:59;11.60;62.20
19060;DHT22;9663;48.996;8.334;2024-01-06T14:11:28;11.70;63.30
19060;DHT22;9663;48.996;8.334;2024-01-06T14:13:58;11.70;62.80
19060;DHT22;9663;48.996;8.334;2024-01-06T14:16:24;11.70;62.40
19060;DHT22;9663;48.996;8.334;2024-01-06T14:18:49;11.70;62.20
19060;DHT22;9663;48.996;8.334;2024-01-06T14:21:15;11.70;62.10
19060;DHT22;9663;48.996;8.334;2024-01-06T14:23:48;11.70;62.10
19060;DHT22;9663;48.996;8.334;2024-01-06T14:26:17;11.70;62.10
19060;DHT22;9663;48.996;8.334;2024-01-06T14:28:47;11.60;62.10
19060;DHT22;9663;48.996;8.334;2024-01-06T14:31:16;11.60;62.10
19060;DHT22;9663;48.996;8.334;2024-01-06T14:33:42;11.60;62.20
19060;DHT22;9663;48.996;8.334;2024-01-06T14:36:08;11.60;62.10
19060;DHT22;9663;48.996;8.334;2024-01-06T14:38:33;11.50;62.20
19060;DHT22;9663;48.996;8.334;2024-01-06T14:40:59;11.60;63.10
19060;DHT22;9663;48.996;8.334;2024-01-06T14:43:25;11.50;62.30
19060;DHT22;9663;48.996;8.334;2024-01-06T14:45:50;11.50;62.30
19060;DHT22;9663;48.996;8.334;2024-01-06T14:48:16;11.50;62.30
19060;DHT22;9663;48.996;8.334;2024-01-06T14:50:42;11.50;62.30
19060;DHT22;9663;48.996;8.334;2024-01-06T14:53:09;11.40;62.30
19060;DHT22;9663;48.996;8.334;2024-01-06T14:55:36;11.40;62.30
19060;DHT22;9663;48.996;8.334;2024-01-06T14:58:03;11.40;62.40
19060;DHT22;9663;48.996;8.334;2024-01-06T15:00:29;11.40;62.40
19060;DHT22;9663;48.996;8.334;2024-01-06T15:02:56;11.40;62.50
19060;DHT22;9663;48.996;8.334;2024-01-06T15:05:22;11.30;62.70
19060;DHT22;9663;48.996;8.334;2024-01-06T15:07:48;11.40;62.80
19060;DHT22;9663;48.996;8.334;2024-01-06T15:10:18;11.40;62.70
19060;DHT22;9663;48.996;8.334;2024-01-06T15:12:44;11.40;62.70
19060;DHT22;9663;48.996;8.334;2024-01-06T15:15:10;11.40;62.70
19060;DHT22;9663;48.996;8.334;2024-01-06T15:17:35;11.40;62.70
19060;DHT22;9663;48.996;8.334;2024-01-06T15:20:03;11.40;62.70
19060;DHT22;9663;48.996;8.334;2024-01-06T15:22:29;11.30;62.70
19060;DHT22;9663;48.996;8.334;2024-01-06T15:24:55;11.30;62.70
19060;DHT22;9663;48.996;8.334;2024-01-06T15:27:21;11.40;62.80
19060;DHT22;9663;48.996;8.334;2024-01-06T15:29:47;11.40;62.80
19060;DHT22;9663;48.996;8.334;2024-01-06T15:32:12;11.40;62.80
19060;DHT22;9663;48.996;8.334;2024-01-06T15:34:38;11.40;63.00
19060;DHT22;9663;48.996;8.334;2024-01-06T15:37:04;11.50;64.50
19060;DHT22;9663;48.996;8.334;2024-01-06T15:39:29;11.60;63.80
19060;DHT22;9663;48.996;8.334;2024-01-06T15:41:55;11.60;63.30
19060;DHT22;9663;48.996;8.334;2024-01-06T15:44:21;11.60;63.00
19060;DHT22;9663;48.996;8.334;2024-01-06T15:46:47;11.60;62.80
19060;DHT22;9663;48.996;8.334;2024-01-06T15:49:13;11.70;63.90
19060;DHT22;9663;48.996;8.334;2024-01-06T15:51:38;11.70;63.40
19060;DHT22;9663;48.996;8.334;2024-01-06T15:54:05;11.60;63.00